x

Southeast Bering Sea -205nm Wnw Of Dutch Harbor, Ak (46073) Wave Buoy

2:50 - Sat 21st Jan 2017 All times are UTC.

  • Sig Wave height 7.5ft
  • Swell Direction
  • Peak Period 9s
  • Average Period 7s
  • Wind
    18mph, 25mph gusts
  • Sea Temp 39°f
  • Sea Pressure 1015.2mb

More Historic Weather Station data

Upgrade to MSW Pro to gain access to the past 30 days of data for over 8000 Wavebouys and Weather Stations around the globe.

Join Pro

Comparision Forecast

View Surf forecast
   
Sáb 01/21 2:50 7.5ft 9s 7s 18 25 mph 1015.2mb 39f
1:50 9ft 9s 7s 18 22 mph 1014.4mb 39f
12:50 8ft 9s  -  16 22 mph 1014mb 38f
Sex 01/20 11:50 9ft 9s 7s 13 18 mph 1013.8mb 38f
10:50 7.5ft 9s 6s 4 11 mph 1014mb 38f
9:50 8.5ft 9s 7s 13 18 mph 1013.3mb 38f
8:50 8ft 10s 6s 16 20 mph 1012.7mb 39f
7:50 9ft 10s 7s 20 29 mph 1012.1mb 39f
6:50 8.5ft 10s 6s 20 25 mph 1011.4mb 39f
5:50 9ft 10s 6s 20 27 mph 1010.5mb 39f
4:50 9.5ft 10s 7s 16 25 mph 1010mb 39f
3:50 9ft 11s 7s 18 25 mph 1009.3mb 39f
2:50 10ft 11s 7s 20 25 mph 1008.5mb 39f
1:50 11ft 11s 7s 20 25 mph 1008mb 39f
12:50 11ft 11s 7s 20 25 mph 1007.5mb 39f
11:50 11.5ft 11s 7s 25 31 mph 1006.8mb 39f
10:50 12.5ft 11s 8s 20 25 mph 1006.4mb 39f
9:50 12ft 11s 8s 18 29 mph 1005.2mb 39f
8:50 13ft 11s 8s 22 31 mph 1004.4mb 39f
7:50 13ft 11s 8s 20 27 mph 1003.8mb 39f
6:50 13.5ft 11s 8s 18 25 mph 1002.7mb 39f
5:50 13.5ft 11s 8s 25 29 mph 1001.7mb 39f
4:50 15ft 11s 8s 25 31 mph 1000.8mb 39f
3:50 13.5ft 12s 8s 29 34 mph 999.6mb 39f
2:50 13ft 10s 8s 31 40 mph 998.6mb 39f
1:50 12.5ft 11s 7s 27 34 mph 997.6mb 39f
12:50 13ft 12s 8s 29 38 mph 996.5mb 39f
Qui 01/19 11:50 13.5ft 12s 8s 22 34 mph 996mb 39f
10:50 13.5ft 12s 8s 27 31 mph 995.4mb 39f
9:50 15ft 12s 8s 27 36 mph 994.7mb 39f
8:50 15ft 12s 8s 22 27 mph 993.9mb 39f
7:50 13.5ft 12s 8s 25 34 mph 993mb 39f
6:50 15.5ft 12s 8s 25 31 mph 991.9mb 39f
5:50 14.5ft 11s 8s 27 34 mph 991mb 39f
4:50 13.5ft 11s 8s 25 31 mph 990mb 39f
3:50 14.5ft 11s 8s 27 34 mph 988.9mb 39f
2:50 14ft 11s 8s 25 34 mph 988.5mb 39f
1:50 13.5ft 10s 7s 27 31 mph 987.6mb 39f
12:50 14.5ft 11s 7s 29 36 mph 986.5mb 39f
11:50 15.5ft 10s 8s 31 38 mph 985.3mb 39f
10:50 15.5ft 9s 7s 36 43 mph 983.5mb 39f
9:50 15ft 9s 7s 40 49 mph 981.4mb 39f
8:50 12.5ft 9s 7s 40 47 mph 978.5mb 39f
7:50 13ft 11s 7s 27 34 mph 975.7mb 39f
6:50 13.5ft 8s 7s 27 34 mph 973.8mb 39f
5:50 13ft 8s 7s 34 40 mph 973.4mb 39f
4:50 13ft 8s 7s 27 34 mph 973.7mb 39f
3:50 13ft 8s 7s 29 38 mph 974.2mb 39f
2:50 15ft 9s 7s 34 40 mph 974.4mb 39f
1:50 14ft 9s 7s 34 43 mph 975.2mb 39f
12:50 15ft 10s 7s 36 45 mph 977mb 39f
Qua 01/18 11:50 14ft 9s 7s 34 40 mph 978.8mb 39f
10:50 16.5ft 8s 7s 34 40 mph 980.1mb 39f
9:50 15ft 9s 7s 29 36 mph 981.3mb 39f
8:50 15.5ft 10s 8s 31 40 mph 981.7mb 39f
7:50 17.5ft 10s 8s 29 36 mph 982mb 39f
6:50 17.5ft 9s 8s 27 36 mph 982.4mb 39f
5:50 15.5ft 9s 7s 40 51 mph 982.4mb 38f
4:50 16ft 9s 7s 40 51 mph 983.2mb 38f
3:50 14ft 8s 7s 40 47 mph 985mb 39f
2:50 11ft 8s 6s 38 45 mph 986.5mb 39f
1:50 10ft 7s 6s 36 45 mph 988.4mb 39f
12:50 8.5ft 6s 6s 34 43 mph 989.9mb 39f
11:50 7ft 6s 6s 29 36 mph 991.7mb 39f
10:50 6.5ft 10s 5s 27 36 mph 992.9mb 39f
9:50 4.5ft 11s 6s 29 34 mph 993.4mb 39f
8:50 4.5ft 9s 7s 11 13 mph 994.7mb 39f
7:50 4ft 8s 7s 20 22 mph 994.8mb 39f
6:50 4.5ft 9s 7s 9 13 mph 995.1mb 39f
5:50 4.5ft 9s 7s 4 9 mph 995.6mb 39f
4:50 4ft 9s 6s 7 9 mph 995.9mb 39f
3:50 4.5ft 9s 7s 7 9 mph 995.5mb 39f
2:50 4.5ft 8s 7s 4 9 mph 995.9mb 39f
1:50 4.5ft 8s 6s 4 9 mph 995.8mb 39f
12:50 4.5ft 8s 6s 4 9 mph 995.9mb 39f
Ter 01/17 11:50 4.5ft 8s 6s 2 9 mph 996.1mb 39f
10:50 5ft 8s 6s 11 13 mph 996.3mb 39f
9:50 5ft 8s 6s  -  4 mph 996.6mb 38f
8:50 4.5ft 8s 6s 7 9 mph 996.3mb 38f
7:50 4.5ft 8s 6s 4 7 mph 996.3mb 38f
6:50 5ft 8s 6s  -  2 mph 996.1mb 39f
5:50 5ft 8s 6s 9 13 mph 995.6mb 39f
4:50 5ft 8s 6s 11 18 mph 995mb 39f
3:50 5.5ft 9s 6s 4 9 mph 995.1mb 39f
2:50 5ft 8s 6s 2 7 mph 995mb 39f
1:50 5ft 8s 6s 4 9 mph 995.1mb 39f
12:50 5.5ft 9s 6s 11 16 mph 995mb 39f
11:50 5.5ft 8s 6s 9 13 mph 995.1mb 39f
10:50 5.5ft 9s 6s 4 9 mph 995.1mb 39f
9:50 6ft 8s 7s 11 18 mph 995mb 39f
8:50 6ft 9s 7s 4 9 mph 995mb 39f
7:50 6.5ft 9s 7s 9 13 mph 994.7mb 39f
6:50 6ft 9s 7s 9 13 mph 994.5mb 39f
5:50 6ft 9s 7s 9 16 mph 994.4mb 39f
4:50 6.5ft 9s 7s 9 13 mph 994.3mb 39f